Time;durP1;ratioP1;P1;durP2;ratioP2;P2;SDS_P1;SDS_P2;PMS_P1;PMS_P2;Temp;Humidity;BMP_temperature;BMP_pressure;BME280_temperature;BME280_humidity;BME280_pressure;Samples;Min_cycle;Max_cycle;Signal;HPM_P1;HPM_P2
2022/05/04 00:00:32;;;;;;;12.15;3.63;;;8.10;99.90;;;;;;4985997;28;20479;-80
2022/05/04 00:02:58;;;;;;;8.77;3.40;;;8.10;99.90;;;;;;4987514;28;20074;-81
2022/05/04 00:05:25;;;;;;;8.52;2.80;;;8.20;99.90;;;;;;4954847;28;20050;-80
2022/05/04 00:07:51;;;;;;;10.27;3.60;;;8.20;99.90;;;;;;4971459;28;20584;-80
2022/05/04 00:10:17;;;;;;;11.20;3.53;;;8.20;99.90;;;;;;4971209;28;20072;-80
2022/05/04 00:12:43;;;;;;;12.88;3.00;;;8.20;99.90;;;;;;4971294;28;20081;-81
2022/05/04 00:15:09;;;;;;;10.45;3.38;;;8.20;99.90;;;;;;4937788;28;20042;-81
2022/05/04 00:17:35;;;;;;;12.35;3.10;;;8.20;99.90;;;;;;4971210;28;20092;-80
2022/05/04 00:20:01;;;;;;;12.65;2.90;;;8.20;99.90;;;;;;4987398;28;20528;-81
2022/05/04 00:22:27;;;;;;;9.82;3.45;;;8.20;99.90;;;;;;4954451;28;20047;-80
2022/05/04 00:24:53;;;;;;;9.57;3.45;;;8.20;99.90;;;;;;4987477;28;20058;-81
2022/05/04 00:27:19;;;;;;;12.90;3.58;;;8.20;99.90;;;;;;4972001;28;20386;-80
2022/05/04 00:29:46;;;;;;;8.38;3.08;;;8.20;99.90;;;;;;4986406;28;20062;-81
2022/05/04 00:32:16;;;;;;;10.80;3.47;;;8.10;99.90;;;;;;4979201;28;20077;-81
2022/05/04 00:34:43;;;;;;;9.23;2.97;;;8.10;99.90;;;;;;4954245;28;20051;-80
2022/05/04 00:37:08;;;;;;;13.05;3.92;;;8.10;99.90;;;;;;4951984;28;20038;-81
2022/05/04 00:39:35;;;;;;;11.77;4.10;;;8.10;99.90;;;;;;4952989;28;20496;-81
2022/05/04 00:42:11;;;;;;;18.33;3.83;;;8.10;99.90;;;;;;4967966;28;20829;-80
2022/05/04 00:44:37;;;;;;;10.35;3.88;;;8.10;99.90;;;;;;4974124;28;20050;-81
2022/05/04 00:47:04;;;;;;;15.65;4.95;;;8.10;99.90;;;;;;4977236;28;20405;-81
2022/05/04 00:49:30;;;;;;;11.10;3.92;;;8.10;99.90;;;;;;4953322;28;20061;-81
2022/05/04 00:51:56;;;;;;;12.02;4.65;;;8.10;99.90;;;;;;4951827;28;20058;-80
2022/05/04 00:54:22;;;;;;;11.45;4.32;;;8.10;99.90;;;;;;4967793;28;20641;-80
2022/05/04 00:56:48;;;;;;;11.60;5.25;;;8.10;99.90;;;;;;4967685;28;20177;-80
2022/05/04 00:59:14;;;;;;;12.57;4.15;;;8.00;99.90;;;;;;4951234;28;20065;-80
2022/05/04 01:01:42;;;;;;;12.15;3.97;;;8.00;99.90;;;;;;4951071;28;20350;-80
2022/05/04 01:04:08;;;;;;;11.10;4.35;;;8.00;99.90;;;;;;4935091;28;20085;-80
2022/05/04 01:06:34;;;;;;;11.80;5.18;;;8.00;99.90;;;;;;4965163;28;20046;-80
2022/05/04 01:09:00;;;;;;;11.13;4.55;;;8.00;99.90;;;;;;4969881;28;20093;-80
2022/05/04 01:11:26;;;;;;;11.27;4.50;;;8.00;99.90;;;;;;4986474;28;20057;-80
2022/05/04 01:14:18;;;;;;;10.70;4.20;;;8.00;99.90;;;;;;4969187;28;20046;-80
2022/05/04 01:16:48;;;;;;;14.05;4.78;;;7.90;99.90;;;;;;4950048;28;20065;-79
2022/05/04 01:19:15;;;;;;;10.18;4.22;;;7.90;99.90;;;;;;4968762;28;20050;-79
2022/05/04 01:21:41;;;;;;;11.43;4.68;;;7.90;99.90;;;;;;4969121;28;20679;-79
2022/05/04 01:24:08;;;;;;;15.70;4.10;;;7.90;99.90;;;;;;4954906;28;20078;-80
2022/05/04 01:26:34;;;;;;;9.85;4.72;;;7.90;99.90;;;;;;4972815;28;20062;-80
2022/05/04 01:29:01;;;;;;;10.27;4.25;;;7.90;99.90;;;;;;4989210;28;20111;-79
2022/05/04 01:31:27;;;;;;;12.55;4.45;;;7.90;99.90;;;;;;4972960;28;20046;-79
2022/05/04 01:33:53;;;;;;;11.55;4.88;;;7.90;99.90;;;;;;4957070;28;20050;-79
2022/05/04 01:36:18;;;;;;;13.52;4.70;;;7.90;99.90;;;;;;4939519;28;20418;-77
2022/05/04 01:38:44;;;;;;;13.40;5.00;;;7.90;99.90;;;;;;4923053;28;20100;-78
2022/05/04 01:42:02;;;;;;;9.65;4.20;;;7.90;99.90;;;;;;4964854;28;20046;-79
2022/05/04 01:43:56;;;;;;;11.43;4.13;;;7.90;99.90;;;;;;4977856;28;20124;-78
2022/05/04 01:46:21;;;;;;;10.98;4.53;;;7.90;99.90;;;;;;4984119;28;20505;-78
2022/05/04 01:48:49;;;;;;;12.27;4.60;;;7.90;99.90;;;;;;4953445;28;20060;-78
2022/05/04 01:51:15;;;;;;;11.05;4.60;;;7.90;99.90;;;;;;4961769;28;20060;-78
2022/05/04 01:53:43;;;;;;;11.38;4.60;;;7.80;99.90;;;;;;4983296;28;20528;-78
2022/05/04 01:56:09;;;;;;;13.48;4.63;;;7.80;99.90;;;;;;4968915;28;20134;-78
2022/05/04 01:58:35;;;;;;;11.02;4.50;;;7.80;99.90;;;;;;4948086;28;20677;-78
2022/05/04 02:01:04;;;;;;;10.05;4.60;;;7.80;99.90;;;;;;4960610;28;20054;-78
2022/05/04 02:03:30;;;;;;;9.07;4.18;;;7.80;99.90;;;;;;4971896;28;20420;-79
2022/05/04 02:05:56;;;;;;;11.25;4.30;;;7.80;99.90;;;;;;4956432;28;20136;-77
2022/05/04 02:08:22;;;;;;;11.50;5.38;;;7.80;99.90;;;;;;4971848;28;20408;-78
2022/05/04 02:10:48;;;;;;;9.80;4.20;;;7.70;99.90;;;;;;4949902;28;20046;-78
2022/05/04 02:13:14;;;;;;;12.80;4.45;;;7.70;99.90;;;;;;4952686;28;20062;-78
2022/05/04 02:15:40;;;;;;;11.43;4.35;;;7.70;99.90;;;;;;4958478;28;20153;-77
2022/05/04 02:18:05;;;;;;;9.75;3.90;;;7.60;99.90;;;;;;4953853;28;20125;-77
2022/05/04 02:20:32;;;;;;;10.32;4.13;;;7.60;99.90;;;;;;4959881;28;20038;-77
2022/05/04 02:22:57;;;;;;;11.27;4.72;;;7.60;99.90;;;;;;4986669;28;20038;-77
2022/05/04 02:25:23;;;;;;;11.77;4.55;;;7.60;99.90;;;;;;4984422;28;20045;-77
2022/05/04 02:27:49;;;;;;;11.23;4.50;;;7.60;99.90;;;;;;4934747;28;20053;-78
2022/05/04 02:30:15;;;;;;;10.98;3.75;;;7.60;99.90;;;;;;4929331;28;20117;-77
2022/05/04 02:32:40;;;;;;;10.63;4.43;;;7.50;99.90;;;;;;4941428;28;20489;-78
2022/05/04 02:37:54;;;;;;;10.73;3.58;;;7.50;99.90;;;;;;4988570;28;20058;-79
2022/05/04 02:40:21;;;;;;;9.13;4.00;;;7.50;99.90;;;;;;4972589;28;20073;-78
2022/05/04 02:42:47;;;;;;;10.10;4.13;;;7.50;99.90;;;;;;4985454;28;20050;-78
2022/05/04 02:45:14;;;;;;;11.65;4.90;;;7.40;99.90;;;;;;4969713;28;20662;-78
2022/05/04 02:47:40;;;;;;;12.23;4.35;;;7.40;99.90;;;;;;4949425;28;20046;-78
2022/05/04 02:50:07;;;;;;;10.07;4.30;;;7.40;99.90;;;;;;4960595;28;20053;-78
2022/05/04 02:52:33;;;;;;;13.43;4.35;;;7.40;99.90;;;;;;4964077;28;20525;-78
2022/05/04 02:54:59;;;;;;;10.38;4.15;;;7.50;99.90;;;;;;4957387;28;20053;-78
2022/05/04 02:57:25;;;;;;;10.75;3.63;;;7.40;99.90;;;;;;4958602;28;20096;-77
2022/05/04 02:59:51;;;;;;;7.53;3.63;;;7.40;99.90;;;;;;4967356;28;20046;-77
2022/05/04 03:02:29;;;;;;;10.85;3.83;;;7.40;99.90;;;;;;4942241;28;20048;-77
2022/05/04 03:05:06;;;;;;;8.85;3.33;;;7.40;99.90;;;;;;4977588;28;20440;-78
2022/05/04 03:07:32;;;;;;;10.25;3.63;;;7.50;99.90;;;;;;4972626;28;20501;-77
2022/05/04 03:09:58;;;;;;;5.55;2.97;;;7.40;99.90;;;;;;4956883;28;20504;-77
2022/05/04 03:12:25;;;;;;;12.18;3.17;;;7.50;99.90;;;;;;4956615;28;20073;-77
2022/05/04 03:14:52;;;;;;;10.23;3.45;;;7.50;99.90;;;;;;4981091;28;20050;-77
2022/05/04 03:17:19;;;;;;;11.40;3.90;;;7.50;99.90;;;;;;4975748;28;20042;-77
2022/05/04 03:19:45;;;;;;;11.65;4.00;;;7.40;99.90;;;;;;4991292;28;20049;-79
2022/05/04 03:22:14;;;;;;;9.80;3.65;;;7.50;99.90;;;;;;4969346;28;20058;-79
2022/05/04 03:24:40;;;;;;;10.45;3.80;;;7.50;99.90;;;;;;4977652;28;20054;-79
2022/05/04 03:27:07;;;;;;;9.50;3.53;;;7.50;99.90;;;;;;4946284;28;20057;-78
2022/05/04 03:29:33;;;;;;;8.68;3.30;;;7.50;99.90;;;;;;4972352;28;20064;-79
2022/05/04 03:31:59;;;;;;;9.55;3.50;;;7.50;99.90;;;;;;4983237;28;20049;-79
2022/05/04 03:34:25;;;;;;;10.15;3.72;;;7.50;99.90;;;;;;4975431;28;20054;-78
2022/05/04 03:36:51;;;;;;;10.02;3.30;;;7.50;99.90;;;;;;4991456;28;20084;-78
2022/05/04 03:39:18;;;;;;;11.48;3.78;;;7.50;99.90;;;;;;4991120;28;20049;-80
2022/05/04 03:41:44;;;;;;;11.15;3.75;;;7.50;99.90;;;;;;4975237;28;20132;-79
2022/05/04 03:44:10;;;;;;;11.68;4.50;;;7.50;99.90;;;;;;4990027;28;20373;-79
2022/05/04 03:46:48;;;;;;;11.18;4.22;;;7.50;99.90;;;;;;4991194;28;20050;-77
2022/05/04 03:49:17;;;;;;;10.85;4.30;;;7.50;99.90;;;;;;4991159;28;20046;-78
2022/05/04 03:51:44;;;;;;;8.32;3.00;;;7.40;99.90;;;;;;4959882;28;20050;-78
2022/05/04 03:54:09;;;;;;;10.15;3.47;;;7.40;99.90;;;;;;4955531;28;20039;-76
2022/05/04 03:56:36;;;;;;;10.32;4.38;;;7.40;99.90;;;;;;4973753;28;20056;-76
2022/05/04 03:59:03;;;;;;;10.55;3.90;;;7.40;99.90;;;;;;4958469;28;20064;-76
2022/05/04 04:01:29;;;;;;;12.55;4.15;;;7.50;99.90;;;;;;4973162;28;20077;-76
2022/05/04 04:03:55;;;;;;;9.57;4.20;;;7.50;99.90;;;;;;4974560;28;20156;-76
2022/05/04 04:06:21;;;;;;;11.45;4.82;;;7.50;99.90;;;;;;4961885;28;20479;-79
2022/05/04 04:08:49;;;;;;;11.40;4.38;;;7.50;99.90;;;;;;4957658;28;20133;-77
2022/05/04 04:11:14;;;;;;;13.35;4.53;;;7.50;99.90;;;;;;4975230;28;20089;-77
2022/05/04 04:13:40;;;;;;;12.50;4.93;;;7.40;99.90;;;;;;4972158;28;20358;-77
2022/05/04 04:16:06;;;;;;;13.60;4.90;;;7.40;99.90;;;;;;4953266;28;20053;-77
2022/05/04 04:18:32;;;;;;;9.10;3.92;;;7.40;99.90;;;;;;4986661;28;20064;-76
2022/05/04 04:23:42;;;;;;;12.15;4.40;;;7.40;99.90;;;;;;4974301;28;20081;-77
2022/05/04 04:26:09;;;;;;;16.00;4.43;;;7.40;99.90;;;;;;4969756;28;20053;-77
2022/05/04 04:28:38;;;;;;;13.77;3.88;;;7.40;99.90;;;;;;4947410;28;20046;-78
2022/05/04 04:31:05;;;;;;;12.18;4.47;;;7.40;99.90;;;;;;4979854;28;20132;-78
2022/05/04 04:33:30;;;;;;;14.02;4.53;;;7.40;99.90;;;;;;4968520;28;20053;-77
2022/05/04 04:35:57;;;;;;;8.15;3.58;;;7.40;99.90;;;;;;4988565;28;20278;-78
2022/05/04 04:38:23;;;;;;;12.07;4.03;;;7.40;99.90;;;;;;4984277;28;20373;-78
2022/05/04 04:40:49;;;;;;;19.05;4.57;;;7.40;99.90;;;;;;4970659;28;20042;-77
2022/05/04 04:43:15;;;;;;;13.15;4.10;;;7.40;99.90;;;;;;4972674;28;20042;-78
2022/05/04 04:45:46;;;;;;;11.15;5.15;;;7.40;99.90;;;;;;4961757;28;20050;-78
2022/05/04 04:48:12;;;;;;;12.80;4.40;;;7.50;99.90;;;;;;4988571;28;20046;-78
2022/05/04 04:50:38;;;;;;;9.85;4.20;;;7.50;99.90;;;;;;4986128;28;20520;-77
2022/05/04 04:53:04;;;;;;;12.07;3.92;;;7.50;99.90;;;;;;4988690;28;20081;-77
2022/05/04 04:55:30;;;;;;;11.02;4.30;;;7.60;99.90;;;;;;4965246;28;20072;-78
2022/05/04 04:57:56;;;;;;;10.85;3.33;;;7.60;99.90;;;;;;4988586;28;20093;-77
2022/05/04 05:00:22;;;;;;;10.82;3.78;;;7.60;99.90;;;;;;4967997;28;20124;-77
2022/05/04 05:02:48;;;;;;;13.93;4.45;;;7.60;99.90;;;;;;4958253;28;20137;-77
2022/05/04 05:05:14;;;;;;;11.45;4.25;;;7.70;99.90;;;;;;4951833;28;20080;-78
2022/05/04 05:07:39;;;;;;;11.93;4.18;;;7.70;99.90;;;;;;4951429;28;20089;-77
2022/05/04 05:10:06;;;;;;;14.20;4.47;;;7.70;99.90;;;;;;4967476;28;20046;-77
2022/05/04 05:12:34;;;;;;;10.32;4.32;;;7.70;99.90;;;;;;4969456;28;20049;-77
2022/05/04 05:17:45;;;;;;;12.27;4.45;;;7.80;99.90;;;;;;4987601;28;20084;-77
2022/05/04 05:20:11;;;;;;;12.02;4.55;;;7.80;99.90;;;;;;4951858;28;20216;-77
2022/05/04 05:22:37;;;;;;;11.20;4.30;;;7.80;99.90;;;;;;4982846;28;20100;-77
2022/05/04 05:25:04;;;;;;;10.40;4.13;;;7.90;99.90;;;;;;4967057;28;20062;-78
2022/05/04 05:27:30;;;;;;;12.90;4.30;;;7.90;99.90;;;;;;4980015;28;20496;-77
2022/05/04 05:29:56;;;;;;;13.73;4.70;;;7.90;99.90;;;;;;4946770;28;20050;-77
2022/05/04 05:32:23;;;;;;;11.35;4.68;;;8.00;99.90;;;;;;4952439;28;20061;-77
2022/05/04 05:34:48;;;;;;;11.15;4.38;;;8.00;99.90;;;;;;4956186;28;20439;-78
2022/05/04 05:37:14;;;;;;;9.15;4.88;;;8.00;99.90;;;;;;4963659;28;20050;-77
2022/05/04 05:39:41;;;;;;;11.30;4.68;;;8.00;99.90;;;;;;4946290;28;20528;-77
2022/05/04 05:42:08;;;;;;;11.27;4.75;;;8.10;99.90;;;;;;4984020;28;20444;-78
2022/05/04 05:44:33;;;;;;;10.77;3.47;;;8.10;99.90;;;;;;4954352;28;20097;-77
2022/05/04 05:46:59;;;;;;;11.38;3.60;;;8.10;99.90;;;;;;4953584;28;20054;-77
2022/05/04 05:49:25;;;;;;;9.90;3.17;;;8.20;99.90;;;;;;4961531;28;20048;-77
2022/05/04 05:51:51;;;;;;;9.32;2.90;;;8.20;99.90;;;;;;4948847;28;20483;-78
2022/05/04 05:54:17;;;;;;;10.73;3.00;;;8.30;99.90;;;;;;4968160;28;20058;-79
2022/05/04 05:56:43;;;;;;;8.27;2.53;;;8.30;99.90;;;;;;4955722;28;20165;-78
2022/05/04 05:59:09;;;;;;;10.82;3.08;;;8.30;99.90;;;;;;4956204;28;20041;-78
2022/05/04 06:01:35;;;;;;;8.70;2.70;;;8.30;99.90;;;;;;4960621;28;20127;-77
2022/05/04 06:04:00;;;;;;;7.30;2.97;;;8.30;99.90;;;;;;4955424;28;20047;-77
2022/05/04 06:06:26;;;;;;;8.60;2.50;;;8.40;99.90;;;;;;4939099;28;20061;-77
2022/05/04 06:08:52;;;;;;;11.65;2.53;;;8.40;99.90;;;;;;4946103;28;20058;-77
2022/05/04 06:11:18;;;;;;;9.45;2.50;;;8.40;99.90;;;;;;4947351;28;20057;-78
2022/05/04 06:13:44;;;;;;;9.20;2.70;;;8.50;99.90;;;;;;4980375;28;20050;-76
2022/05/04 06:16:10;;;;;;;7.97;2.85;;;8.50;99.90;;;;;;4964888;28;20050;-77
2022/05/04 06:18:35;;;;;;;8.80;2.67;;;8.50;99.90;;;;;;4958473;28;20054;-77
2022/05/04 06:21:01;;;;;;;10.10;2.60;;;8.60;99.90;;;;;;4956041;28;20451;-78
2022/05/04 06:23:27;;;;;;;6.43;2.42;;;8.70;99.90;;;;;;4957631;28;20038;-77
2022/05/04 06:25:53;;;;;;;7.05;2.65;;;8.70;99.90;;;;;;4956519;28;20054;-77
2022/05/04 06:28:19;;;;;;;8.32;2.75;;;8.70;99.90;;;;;;4957255;28;20144;-79
2022/05/04 06:36:14;;;;;;;8.45;2.20;;;8.80;99.90;;;;;;4958144;28;20404;-78
2022/05/04 06:38:39;;;;;;;8.27;2.60;;;8.80;99.90;;;;;;4975663;28;20050;-77
2022/05/04 06:41:05;;;;;;;10.43;2.90;;;8.80;99.90;;;;;;4981048;28;20038;-78
2022/05/04 06:43:32;;;;;;;9.30;2.78;;;8.90;99.90;;;;;;4978507;28;20046;-78
2022/05/04 06:45:58;;;;;;;8.77;2.50;;;8.80;99.90;;;;;;4979158;28;20055;-78
2022/05/04 06:48:24;;;;;;;9.60;2.90;;;8.90;99.90;;;;;;4943579;28;20039;-78
2022/05/04 06:50:50;;;;;;;8.45;2.80;;;8.90;99.90;;;;;;4964850;28;20050;-78
2022/05/04 06:53:16;;;;;;;8.85;2.70;;;8.90;99.90;;;;;;4956649;28;20050;-81
2022/05/04 06:55:42;;;;;;;8.88;2.80;;;9.00;99.90;;;;;;4933267;28;20064;-79
2022/05/04 06:58:08;;;;;;;10.32;3.20;;;9.20;99.90;;;;;;4983227;28;20054;-78
2022/05/04 07:00:35;;;;;;;9.80;2.65;;;9.30;99.90;;;;;;4976282;28;20085;-78
2022/05/04 07:03:01;;;;;;;11.32;2.85;;;9.40;99.90;;;;;;4973777;28;20058;-78
2022/05/04 07:05:26;;;;;;;7.88;3.00;;;9.50;99.90;;;;;;4976140;28;20331;-78
2022/05/04 07:07:53;;;;;;;11.15;3.50;;;9.60;99.90;;;;;;4954964;28;21379;-78
2022/05/04 07:10:19;;;;;;;9.05;2.80;;;9.60;99.90;;;;;;4973573;28;20270;-78
2022/05/04 07:12:45;;;;;;;8.00;2.80;;;9.60;99.90;;;;;;4950244;28;20043;-78
2022/05/04 07:15:11;;;;;;;12.25;2.97;;;9.60;99.90;;;;;;4929328;28;20108;-79
2022/05/04 07:17:37;;;;;;;9.98;2.65;;;9.70;99.90;;;;;;4973362;28;20429;-78
2022/05/04 07:20:03;;;;;;;12.18;3.30;;;9.60;99.90;;;;;;4959452;28;20049;-78
2022/05/04 07:22:29;;;;;;;8.60;2.83;;;9.60;99.90;;;;;;4954116;28;20513;-78
2022/05/04 07:24:55;;;;;;;11.73;3.08;;;9.60;99.70;;;;;;4955926;28;20082;-78
2022/05/04 07:27:21;;;;;;;10.07;2.83;;;9.60;99.90;;;;;;4938209;28;20042;-78
2022/05/04 07:29:47;;;;;;;6.65;2.50;;;9.60;99.90;;;;;;4976968;28;20043;-78
2022/05/04 07:32:14;;;;;;;6.50;2.80;;;9.60;99.90;;;;;;4939392;28;20045;-79
2022/05/04 07:34:43;;;;;;;11.98;3.10;;;9.60;99.00;;;;;;4973799;28;20085;-78
2022/05/04 07:37:08;;;;;;;10.90;2.95;;;9.70;98.80;;;;;;4967247;28;20490;-78
2022/05/04 07:42:24;;;;;;;8.48;3.67;;;9.70;99.20;;;;;;4971464;28;20129;-79
2022/05/04 07:44:57;;;;;;;8.65;3.15;;;9.80;98.70;;;;;;4956798;28;20081;-77
2022/05/04 07:47:23;;;;;;;9.52;2.90;;;9.90;99.00;;;;;;4958169;28;20367;-78
2022/05/04 07:49:49;;;;;;;9.15;3.08;;;9.90;98.80;;;;;;4964289;28;20050;-78
2022/05/04 07:52:15;;;;;;;9.75;2.72;;;9.90;99.50;;;;;;4973420;28;20053;-78
2022/05/04 07:54:42;;;;;;;8.20;2.80;;;9.90;98.40;;;;;;4947029;28;20038;-78
2022/05/04 07:57:08;;;;;;;11.23;3.10;;;9.80;99.50;;;;;;4959745;28;20046;-78
2022/05/04 07:59:34;;;;;;;10.00;3.00;;;9.80;99.90;;;;;;4947997;28;20054;-79
2022/05/04 08:04:45;;;;;;;12.50;3.67;;;9.80;98.90;;;;;;4973177;28;20054;-79
2022/05/04 08:07:11;;;;;;;13.73;3.20;;;9.70;98.90;;;;;;4947683;28;20100;-78
2022/05/04 08:09:36;;;;;;;8.98;2.80;;;9.70;99.50;;;;;;4941550;28;20047;-78
2022/05/04 08:12:06;;;;;;;9.68;2.65;;;9.60;99.90;;;;;;4961980;28;20648;-77
2022/05/04 08:14:33;;;;;;;8.50;2.53;;;9.70;99.90;;;;;;4983613;28;20127;-77
2022/05/04 08:16:59;;;;;;;10.30;2.70;;;9.60;99.90;;;;;;4969457;28;20053;-78
2022/05/04 08:19:25;;;;;;;9.88;3.20;;;9.70;99.90;;;;;;4966706;28;20058;-78
2022/05/04 08:21:51;;;;;;;8.50;2.58;;;9.70;99.60;;;;;;4982947;28;20170;-78
2022/05/04 08:24:18;;;;;;;7.13;2.35;;;9.90;99.00;;;;;;4968977;28;20057;-78
2022/05/04 08:26:43;;;;;;;10.05;2.63;;;10.10;99.40;;;;;;4957018;28;20050;-78
2022/05/04 08:29:09;;;;;;;10.07;2.78;;;10.40;98.90;;;;;;4955459;28;20061;-78
2022/05/04 08:31:36;;;;;;;8.25;3.45;;;10.70;96.60;;;;;;4986796;28;20100;-78
2022/05/04 08:34:02;;;;;;;7.38;2.70;;;10.90;96.00;;;;;;4967540;28;20042;-78
2022/05/04 08:36:28;;;;;;;7.05;2.67;;;11.00;96.60;;;;;;4972768;28;20057;-79
2022/05/04 08:38:56;;;;;;;9.50;2.88;;;11.20;95.90;;;;;;4971925;28;20065;-78
2022/05/04 08:41:22;;;;;;;11.63;2.95;;;11.40;96.00;;;;;;4968242;28;20714;-78
2022/05/04 08:43:51;;;;;;;7.18;2.58;;;11.70;94.50;;;;;;4970048;28;21339;-79
2022/05/04 08:46:20;;;;;;;7.97;2.97;;;11.60;91.60;;;;;;4972282;28;20095;-79
2022/05/04 08:48:47;;;;;;;10.93;3.10;;;11.40;92.00;;;;;;4972973;28;20456;-78
2022/05/04 08:51:14;;;;;;;12.07;4.00;;;11.20;91.80;;;;;;4987664;28;20046;-78
2022/05/04 08:53:42;;;;;;;10.98;2.80;;;11.10;92.20;;;;;;4972805;28;20498;-79
2022/05/04 08:56:08;;;;;;;14.02;2.83;;;11.10;92.50;;;;;;4956680;28;20054;-78
2022/05/04 08:58:37;;;;;;;8.35;2.60;;;11.10;93.40;;;;;;4985450;28;20046;-79
2022/05/04 09:01:04;;;;;;;7.93;2.30;;;11.20;93.70;;;;;;4965735;28;20524;-78
2022/05/04 09:03:32;;;;;;;7.68;3.03;;;11.50;94.00;;;;;;4977679;28;20042;-78
2022/05/04 09:05:58;;;;;;;8.98;2.58;;;11.70;92.90;;;;;;4986119;28;20046;-79
2022/05/04 09:08:25;;;;;;;8.20;3.17;;;11.90;91.00;;;;;;4964360;28;20046;-78
2022/05/04 09:10:51;;;;;;;7.35;2.42;;;12.00;89.30;;;;;;4980967;28;20437;-79
2022/05/04 09:13:20;;;;;;;9.68;3.00;;;12.00;90.20;;;;;;4985426;28;20161;-79
2022/05/04 09:15:46;;;;;;;8.68;3.00;;;12.00;89.40;;;;;;4988366;28;20084;-79
2022/05/04 09:18:19;;;;;;;9.43;2.53;;;12.10;90.90;;;;;;4986617;28;20473;-79
2022/05/04 09:20:49;;;;;;;9.23;2.70;;;12.30;89.80;;;;;;4980002;28;20042;-80
2022/05/04 09:23:20;;;;;;;8.75;2.80;;;12.30;88.90;;;;;;4970695;28;20038;-79
2022/05/04 09:25:57;;;;;;;8.23;2.70;;;12.20;88.40;;;;;;4967290;28;20480;-79
2022/05/04 09:28:24;;;;;;;6.85;2.60;;;12.30;89.60;;;;;;4969486;28;20069;-79
2022/05/04 09:30:52;;;;;;;7.47;2.83;;;12.30;86.10;;;;;;4986312;28;20073;-80
2022/05/04 09:33:22;;;;;;;6.53;2.65;;;12.40;83.80;;;;;;4987376;28;20050;-79
2022/05/04 09:35:49;;;;;;;7.55;2.22;;;12.40;84.50;;;;;;4955986;28;20045;-79
2022/05/04 09:46:47;;;;;;;7.85;2.70;;;13.00;88.10;;;;;;4987079;28;20053;-77
2022/05/04 09:49:33;;;;;;;7.28;2.45;;;13.00;80.80;;;;;;4986815;28;20042;-79
2022/05/04 09:52:04;;;;;;;7.43;2.53;;;12.70;81.70;;;;;;4950854;28;20049;-78
2022/05/04 09:54:30;;;;;;;7.72;2.72;;;12.50;83.80;;;;;;4968332;28;20046;-78
2022/05/04 09:57:03;;;;;;;8.13;2.70;;;12.50;86.60;;;;;;4971157;28;20124;-79
2022/05/04 09:59:31;;;;;;;7.78;2.60;;;12.70;87.00;;;;;;4976823;28;20070;-79
2022/05/04 10:02:01;;;;;;;10.15;2.78;;;13.00;83.80;;;;;;4982683;28;20534;-78
2022/05/04 10:04:28;;;;;;;7.47;2.80;;;13.10;79.50;;;;;;4968846;28;20358;-78
2022/05/04 10:06:54;;;;;;;9.05;2.78;;;13.30;81.20;;;;;;4968105;28;20049;-79
2022/05/04 10:09:22;;;;;;;7.85;2.63;;;13.40;77.50;;;;;;4986503;28;20049;-77
2022/05/04 10:11:56;;;;;;;6.43;2.42;;;13.40;74.80;;;;;;4971507;28;20054;-78
2022/05/04 10:14:23;;;;;;;8.40;2.92;;;13.30;74.90;;;;;;4956852;28;20424;-77
2022/05/04 10:17:04;;;;;;;7.50;2.45;;;13.30;74.00;;;;;;4971317;28;20046;-79
2022/05/04 10:19:55;;;;;;;7.38;2.53;;;13.30;77.20;;;;;;4983757;28;20467;-78
2022/05/04 10:22:27;;;;;;;9.18;2.58;;;13.60;77.80;;;;;;4967308;28;20034;-80
2022/05/04 10:24:58;;;;;;;10.93;3.15;;;13.70;76.30;;;;;;4986847;28;20054;-78
2022/05/04 10:27:28;;;;;;;8.38;2.33;;;13.70;75.40;;;;;;4975302;28;20398;-78
2022/05/04 10:32:56;;;;;;;5.95;2.03;;;13.70;74.60;;;;;;4987296;28;20518;-78
2022/05/04 10:35:31;;;;;;;8.50;2.92;;;13.70;78.10;;;;;;4955153;28;20114;-79
2022/05/04 10:37:57;;;;;;;7.95;3.05;;;13.90;74.60;;;;;;4970754;28;20041;-79
2022/05/04 10:40:24;;;;;;;9.27;2.38;;;14.00;72.10;;;;;;4965487;28;20524;-79
2022/05/04 10:42:56;;;;;;;7.38;2.28;;;14.00;70.30;;;;;;4986481;28;20038;-79
2022/05/04 10:45:43;;;;;;;7.07;2.50;;;13.90;70.00;;;;;;4969803;28;20042;-80
2022/05/04 10:48:18;;;;;;;8.38;2.50;;;13.90;70.80;;;;;;4983681;28;20045;-79
2022/05/04 10:50:57;;;;;;;9.65;2.40;;;14.00;72.60;;;;;;4969959;28;20156;-80
2022/05/04 10:53:27;;;;;;;8.68;2.92;;;14.10;74.20;;;;;;4966640;28;20050;-78
2022/05/04 10:56:01;;;;;;;8.53;2.77;;;14.30;76.70;;;;;;4955066;28;20059;-78
2022/05/04 10:58:34;;;;;;;7.35;2.95;;;14.40;70.10;;;;;;4961544;28;20352;-78
2022/05/04 11:01:23;;;;;;;7.97;2.83;;;14.50;75.00;;;;;;4986224;28;20046;-78
2022/05/04 11:03:54;;;;;;;8.68;2.90;;;14.60;72.70;;;;;;4972891;28;20045;-78
2022/05/04 11:06:47;;;;;;;8.30;2.95;;;14.70;68.30;;;;;;4960238;28;20135;-80
2022/05/04 11:09:15;;;;;;;7.78;2.83;;;14.60;67.80;;;;;;4954381;28;20058;-80
2022/05/04 11:11:46;;;;;;;6.85;2.58;;;14.60;68.90;;;;;;4984541;28;20069;-79
2022/05/04 11:14:14;;;;;;;7.10;2.60;;;14.70;69.90;;;;;;4976806;28;20058;-79
2022/05/04 11:16:42;;;;;;;6.47;2.63;;;14.80;66.90;;;;;;4974731;28;20234;-80
2022/05/04 11:19:08;;;;;;;6.85;2.83;;;15.00;65.40;;;;;;4966168;28;20454;-79
2022/05/04 11:21:37;;;;;;;9.15;2.60;;;15.20;70.80;;;;;;4950933;28;20133;-80
2022/05/04 11:24:06;;;;;;;8.73;3.05;;;15.50;68.60;;;;;;4970275;28;20045;-79
2022/05/04 11:26:35;;;;;;;7.25;2.80;;;15.50;64.00;;;;;;4980212;28;20484;-80
2022/05/04 11:29:01;;;;;;;8.05;2.40;;;15.50;66.00;;;;;;4978672;28;20568;-79
2022/05/04 11:31:27;;;;;;;9.07;2.90;;;15.60;65.80;;;;;;4966081;28;20218;-78
2022/05/04 11:33:52;;;;;;;9.48;2.90;;;15.70;64.10;;;;;;4966089;28;20082;-80
2022/05/04 11:36:23;;;;;;;8.07;2.60;;;15.60;63.20;;;;;;4961446;28;20084;-80
2022/05/04 11:38:50;;;;;;;8.60;3.55;;;15.60;66.10;;;;;;4964667;28;20080;-80
2022/05/04 11:41:17;;;;;;;13.48;3.90;;;15.60;64.90;;;;;;4954625;28;20468;-79
2022/05/04 11:43:43;;;;;;;7.40;3.15;;;15.60;64.30;;;;;;4965812;28;20403;-78
2022/05/04 11:46:11;;;;;;;7.85;3.40;;;15.60;63.30;;;;;;4986140;28;20042;-80
2022/05/04 11:48:43;;;;;;;7.13;2.90;;;15.40;63.40;;;;;;4973257;28;20040;-81
2022/05/04 11:51:10;;;;;;;5.70;3.35;;;15.10;62.50;;;;;;4990135;28;20045;-78
2022/05/04 11:53:37;;;;;;;6.80;2.70;;;14.90;63.70;;;;;;4972123;28;20073;-79
2022/05/04 11:56:04;;;;;;;6.75;3.10;;;15.00;67.20;;;;;;4960872;28;20041;-79
2022/05/04 11:58:32;;;;;;;9.02;3.05;;;15.20;66.70;;;;;;4986207;28;20046;-79
2022/05/04 12:00:59;;;;;;;9.73;2.90;;;15.40;67.30;;;;;;4988584;28;20271;-79
2022/05/04 12:03:25;;;;;;;8.50;3.28;;;15.60;64.10;;;;;;4971072;28;20331;-80
2022/05/04 12:05:53;;;;;;;8.45;3.20;;;15.40;61.90;;;;;;4968876;28;20049;-80
2022/05/04 12:08:20;;;;;;;9.98;2.97;;;15.30;62.40;;;;;;4973911;28;20385;-79
2022/05/04 12:10:48;;;;;;;6.80;3.20;;;15.20;63.40;;;;;;4989452;28;20073;-79
2022/05/04 12:13:19;;;;;;;6.20;2.95;;;15.20;63.60;;;;;;4970666;28;20630;-80
2022/05/04 12:15:45;;;;;;;5.57;2.63;;;15.30;62.40;;;;;;4988730;28;20046;-79
2022/05/04 12:18:13;;;;;;;7.93;3.05;;;15.30;60.70;;;;;;4966990;28;20042;-80
2022/05/04 12:20:42;;;;;;;9.93;3.45;;;15.30;61.40;;;;;;4986079;28;20555;-79
2022/05/04 12:23:08;;;;;;;8.43;2.92;;;15.30;60.20;;;;;;4985355;28;20042;-80
2022/05/04 12:25:34;;;;;;;6.35;2.95;;;15.30;62.00;;;;;;4971204;28;20540;-80
2022/05/04 12:28:00;;;;;;;7.15;3.15;;;15.30;65.90;;;;;;4969165;28;20157;-80
2022/05/04 12:33:14;;;;;;;8.38;3.05;;;15.80;65.50;;;;;;4988425;28;20042;-80
2022/05/04 12:35:44;;;;;;;7.25;2.47;;;15.80;62.10;;;;;;4956932;28;20558;-79
2022/05/04 12:38:13;;;;;;;8.02;3.08;;;15.60;59.30;;;;;;4986027;28;20076;-80
2022/05/04 12:40:39;;;;;;;9.32;3.22;;;15.60;63.90;;;;;;4967564;28;20471;-79
2022/05/04 12:43:06;;;;;;;7.63;2.90;;;15.70;61.80;;;;;;4971987;28;20496;-79
2022/05/04 12:45:37;;;;;;;9.65;3.33;;;15.80;60.50;;;;;;4956626;28;20480;-79
2022/05/04 12:48:09;;;;;;;;;;;15.80;62.80;;;;;;4983459;28;20424;-79
2022/05/04 12:50:36;;;;;;;7.95;3.17;;;16.00;61.40;;;;;;4977651;28;19949;-79
2022/05/04 12:53:03;;;;;;;7.28;2.97;;;16.10;62.30;;;;;;4984695;28;20053;-79
2022/05/04 12:58:14;;;;;;;6.03;2.70;;;16.40;61.50;;;;;;4977220;28;20125;-81
2022/05/04 13:00:41;;;;;;;8.50;3.20;;;16.60;62.70;;;;;;4957885;28;20125;-80
2022/05/04 13:03:10;;;;;;;9.35;3.15;;;16.70;58.80;;;;;;4956967;28;20088;-80
2022/05/04 13:05:35;;;;;;;12.02;3.85;;;16.70;60.30;;;;;;4959934;28;20076;-78
2022/05/04 13:08:01;;;;;;;7.20;2.80;;;16.90;59.90;;;;;;4972296;28;20485;-79
2022/05/04 13:10:27;;;;;;;7.60;2.97;;;17.00;58.50;;;;;;4972283;28;20034;-79
2022/05/04 13:12:53;;;;;;;7.68;3.05;;;17.10;57.90;;;;;;4969881;28;20053;-79
2022/05/04 13:15:18;;;;;;;7.20;2.72;;;17.20;57.80;;;;;;4983239;28;20046;-79
2022/05/04 13:17:44;;;;;;;5.85;2.47;;;17.20;57.00;;;;;;4962672;28;20054;-84
2022/05/04 13:20:10;;;;;;;6.78;3.00;;;17.30;58.30;;;;;;4967149;28;20571;-82
2022/05/04 13:22:36;;;;;;;6.63;2.72;;;17.40;55.00;;;;;;4969426;28;20563;-83
2022/05/04 13:25:03;;;;;;;6.65;2.97;;;17.40;56.00;;;;;;4984696;28;20061;-83